Time;durP1;ratioP1;P1;durP2;ratioP2;P2;SDS_P1;SDS_P2;PMS_P1;PMS_P2;Temp;Humidity;BMP_temperature;BMP_pressure;BME280_temperature;BME280_humidity;BME280_pressure;Samples;Min_cycle;Max_cycle;Signal;HPM_P1;HPM_P2
2021/08/08 00:07:50;;;;;;;1.73;1.63;;;21.40;99.90;;;;;;5001733;28;20241;-78
2021/08/08 00:10:17;;;;;;;4.90;0.90;;;21.40;99.90;;;;;;4995227;28;20209;-79
2021/08/08 00:12:44;;;;;;;1.40;1.20;;;21.40;99.90;;;;;;4993644;28;20202;-78
2021/08/08 00:15:13;;;;;;;1.90;1.10;;;21.40;99.90;;;;;;5000315;28;20213;-79
2021/08/08 00:17:39;;;;;;;1.52;1.10;;;21.40;99.90;;;;;;4997738;28;20200;-79
2021/08/08 00:20:08;;;;;;;1.40;0.82;;;21.40;99.90;;;;;;4993101;28;20202;-79
2021/08/08 00:22:35;;;;;;;1.20;1.02;;;21.40;99.90;;;;;;4992267;28;20198;-77
2021/08/08 00:36:01;;;;;;;1.25;0.70;;;21.30;99.90;;;;;;4989681;28;20172;-79
2021/08/08 00:38:51;;;;;;;1.05;0.80;;;21.30;99.90;;;;;;4996230;28;20193;-78
2021/08/08 00:41:18;;;;;;;1.30;0.90;;;21.20;99.90;;;;;;4995571;28;20221;-78
2021/08/08 00:43:45;;;;;;;1.02;0.85;;;21.20;99.90;;;;;;4988456;28;20224;-79
2021/08/08 00:46:12;;;;;;;1.15;0.90;;;21.20;99.90;;;;;;4992436;28;20209;-79
2021/08/08 00:48:38;;;;;;;1.30;0.90;;;21.20;99.90;;;;;;4988156;28;20216;-79
2021/08/08 00:51:06;;;;;;;1.85;1.10;;;21.20;99.90;;;;;;4999447;28;20200;-78
2021/08/08 00:53:32;;;;;;;1.45;0.90;;;21.20;99.90;;;;;;5001899;28;20212;-79
2021/08/08 00:56:01;;;;;;;1.83;1.15;;;21.20;99.90;;;;;;4997574;28;20197;-78
2021/08/08 01:12:16;;;;;;;1.02;0.93;;;21.10;99.90;;;;;;4955553;29;20186;-80
2021/08/08 01:14:45;;;;;;;1.70;0.80;;;21.10;99.90;;;;;;4952927;28;20916;-78
2021/08/08 01:17:15;;;;;;;1.70;1.08;;;21.10;99.90;;;;;;4948124;28;20199;-77
2021/08/08 01:19:50;;;;;;;1.48;0.90;;;21.10;99.90;;;;;;4947920;28;20203;-78
2021/08/08 01:22:19;;;;;;;1.60;1.00;;;21.10;99.90;;;;;;4950086;28;20207;-79
2021/08/08 01:24:49;;;;;;;1.25;1.05;;;21.10;99.90;;;;;;4956949;28;20203;-78
2021/08/08 01:27:17;;;;;;;2.55;1.13;;;21.00;99.90;;;;;;4957994;28;20198;-78
2021/08/08 01:29:43;;;;;;;1.15;0.80;;;21.10;99.90;;;;;;4961584;28;20659;-78
2021/08/08 01:42:49;;;;;;;1.50;0.95;;;21.00;99.90;;;;;;4955608;29;20272;-78
2021/08/08 01:45:42;;;;;;;3.13;1.10;;;21.00;99.90;;;;;;4957124;28;20661;-79
2021/08/08 01:48:11;;;;;;;1.50;0.82;;;20.90;99.90;;;;;;4960885;29;20207;-78
2021/08/08 01:50:38;;;;;;;1.88;0.80;;;21.00;99.90;;;;;;4963364;28;20199;-78
2021/08/08 01:53:06;;;;;;;0.90;0.70;;;20.90;99.90;;;;;;4962225;28;20583;-78
2021/08/08 01:55:34;;;;;;;1.38;0.82;;;20.90;99.90;;;;;;4946249;28;20203;-78
2021/08/08 01:58:04;;;;;;;2.97;2.65;;;20.90;99.90;;;;;;4944805;28;20214;-78
2021/08/08 02:00:31;;;;;;;1.10;0.80;;;20.90;99.90;;;;;;4942689;28;20214;-79
2021/08/08 02:02:59;;;;;;;1.30;0.80;;;20.90;99.90;;;;;;4949886;29;20210;-78
2021/08/08 02:05:29;;;;;;;2.38;1.05;;;20.90;99.90;;;;;;4951023;28;20205;-78
2021/08/08 07:28:46;;;;;;;2.53;2.00;;;20.00;99.90;;;;;;2615618;28;22347;-79
2021/08/08 07:31:28;;;;;;;2.80;1.88;;;20.00;99.90;;;;;;4982725;28;20229;-78
2021/08/08 07:33:54;;;;;;;3.00;1.90;;;20.00;99.90;;;;;;4984820;28;20263;-78
2021/08/08 07:36:21;;;;;;;3.17;1.92;;;20.00;99.90;;;;;;4975013;28;20217;-78
2021/08/08 07:38:48;;;;;;;2.53;1.58;;;20.00;99.90;;;;;;4989699;28;20194;-78
2021/08/08 07:41:15;;;;;;;2.72;1.83;;;20.00;99.90;;;;;;4973424;28;20205;-79
2021/08/08 07:43:43;;;;;;;3.75;2.13;;;20.00;99.90;;;;;;4983276;28;20212;-79
2021/08/08 07:46:10;;;;;;;2.75;2.03;;;19.90;99.90;;;;;;4987311;28;20197;-79
2021/08/08 07:48:37;;;;;;;8.63;4.43;;;19.90;99.90;;;;;;4968741;28;20674;-79
2021/08/08 08:02:02;;;;;;;2.90;2.40;;;19.90;99.90;;;;;;4980255;28;20192;-79
2021/08/08 08:04:58;;;;;;;4.07;2.40;;;20.00;99.90;;;;;;4989548;28;20193;-78
2021/08/08 08:07:24;;;;;;;4.10;2.20;;;20.00;99.90;;;;;;4992188;28;20202;-79
2021/08/08 08:09:51;;;;;;;6.82;2.40;;;20.00;99.90;;;;;;4988432;28;22391;-79
2021/08/08 08:12:18;;;;;;;3.33;2.15;;;20.00;99.90;;;;;;4992511;28;20577;-79
2021/08/08 08:14:44;;;;;;;3.92;1.95;;;20.00;99.90;;;;;;4996050;28;20201;-79
2021/08/08 08:17:11;;;;;;;4.75;1.70;;;20.00;99.90;;;;;;4978812;28;20678;-79
2021/08/08 08:19:38;;;;;;;3.53;1.95;;;20.10;99.90;;;;;;4972949;28;20587;-79
2021/08/08 08:22:06;;;;;;;4.78;2.42;;;20.00;99.90;;;;;;4980003;28;20204;-80
2021/08/08 08:41:30;;;;;;;6.05;2.00;;;20.10;99.90;;;;;;4992276;28;20197;-79
2021/08/08 08:43:57;;;;;;;4.50;2.00;;;20.20;99.90;;;;;;4987005;28;20230;-79
2021/08/08 08:46:25;;;;;;;3.70;1.80;;;20.30;99.90;;;;;;4982278;28;20224;-79
2021/08/08 08:48:53;;;;;;;6.45;2.10;;;20.40;99.90;;;;;;4997733;28;20206;-79
2021/08/08 08:51:25;;;;;;;4.07;2.15;;;20.70;99.90;;;;;;4992245;28;20233;-79
2021/08/08 08:53:53;;;;;;;3.97;1.80;;;20.80;99.90;;;;;;4998126;28;20185;-79
2021/08/08 08:56:20;;;;;;;4.00;1.75;;;21.00;99.90;;;;;;4991220;28;20206;-79
2021/08/08 08:58:48;;;;;;;3.88;1.75;;;21.10;99.90;;;;;;4998324;28;20704;-79
2021/08/08 09:12:09;;;;;;;2.03;1.30;;;21.40;99.90;;;;;;4993589;28;20244;-80
2021/08/08 09:15:01;;;;;;;6.85;2.00;;;21.50;99.90;;;;;;4995005;28;20216;-79
2021/08/08 09:17:28;;;;;;;3.53;1.70;;;21.60;99.90;;;;;;4995167;28;20205;-79
2021/08/08 09:20:02;;;;;;;4.07;2.03;;;21.60;99.90;;;;;;4993217;28;20467;-79
2021/08/08 09:22:29;;;;;;;5.53;3.38;;;21.60;99.90;;;;;;4986845;28;20201;-79
2021/08/08 09:24:56;;;;;;;2.85;1.65;;;21.60;99.90;;;;;;4996005;28;20201;-79
2021/08/08 09:27:34;;;;;;;4.78;2.00;;;21.50;99.90;;;;;;4994369;28;20209;-79
2021/08/08 09:30:03;;;;;;;3.50;1.55;;;21.40;99.90;;;;;;4992136;28;20209;-79
2021/08/08 09:32:31;;;;;;;6.28;1.85;;;21.40;99.90;;;;;;4985795;28;20193;-79
2021/08/08 09:55:23;;;;;;;5.15;2.30;;;21.40;99.90;;;;;;4967086;28;20693;-77
2021/08/08 09:57:50;;;;;;;4.43;2.28;;;21.40;99.90;;;;;;4965261;28;20289;-78
2021/08/08 10:00:24;;;;;;;4.60;1.87;;;21.50;99.90;;;;;;4962874;28;20194;-79
2021/08/08 10:02:52;;;;;;;3.83;2.05;;;21.50;99.90;;;;;;4973603;28;20468;-80
2021/08/08 10:19:10;;;;;;;4.60;2.05;;;21.60;99.90;;;;;;4966108;28;20182;-79
2021/08/08 10:21:42;;;;;;;4.63;2.22;;;21.60;99.90;;;;;;4974185;28;20205;-78
2021/08/08 10:24:10;;;;;;;3.20;1.70;;;21.60;99.90;;;;;;4975006;28;20233;-79
2021/08/08 10:26:37;;;;;;;3.60;1.63;;;21.60;99.90;;;;;;4971036;28;20217;-79
2021/08/08 10:29:05;;;;;;;5.90;2.22;;;21.60;99.90;;;;;;4966161;28;20209;-81
2021/08/08 10:31:36;;;;;;;3.13;1.50;;;21.60;99.90;;;;;;4966093;28;20203;-79
2021/08/08 10:34:06;;;;;;;3.60;2.00;;;21.50;99.90;;;;;;4971414;28;20838;-80
2021/08/08 10:50:21;;;;;;;5.00;2.33;;;21.60;99.90;;;;;;2892811;28;22679;-77
2021/08/08 10:52:49;;;;;;;5.73;2.60;;;21.60;99.90;;;;;;4992828;28;20453;-79
2021/08/08 10:55:22;;;;;;;5.68;2.00;;;21.60;99.90;;;;;;4992405;28;20535;-80
2021/08/08 10:57:49;;;;;;;6.43;2.25;;;21.60;99.90;;;;;;4992603;28;20236;-79
2021/08/08 11:00:17;;;;;;;2.83;1.50;;;21.70;99.90;;;;;;4993977;28;20209;-79
2021/08/08 11:02:45;;;;;;;5.03;1.70;;;21.70;99.90;;;;;;4988791;28;20201;-79
2021/08/08 11:22:09;;;;;;;4.20;1.95;;;21.90;99.90;;;;;;4989676;28;20204;-79
2021/08/08 11:24:35;;;;;;;3.92;2.03;;;21.90;99.90;;;;;;5000225;28;20634;-79
2021/08/08 11:27:02;;;;;;;5.20;1.87;;;22.00;99.90;;;;;;5007311;28;20197;-78
2021/08/08 11:29:29;;;;;;;8.18;2.92;;;22.00;99.90;;;;;;5000679;28;20483;-78
2021/08/08 11:31:59;;;;;;;5.50;2.13;;;21.90;99.90;;;;;;5003790;28;20197;-78
2021/08/08 11:34:27;;;;;;;5.10;2.50;;;21.90;99.90;;;;;;4984502;28;20197;-78
2021/08/08 11:53:52;;;;;;;4.60;1.70;;;22.00;99.90;;;;;;4610745;28;20637;-79
2021/08/08 11:56:22;;;;;;;3.65;1.80;;;22.10;99.90;;;;;;4990853;28;20459;-79
2021/08/08 11:58:50;;;;;;;7.00;2.10;;;22.10;99.90;;;;;;4990100;28;20201;-79
2021/08/08 12:01:19;;;;;;;2.93;1.57;;;22.10;99.90;;;;;;4986161;28;20198;-78
2021/08/08 12:03:46;;;;;;;2.17;1.45;;;22.10;99.90;;;;;;4986512;28;21013;-80
2021/08/08 12:06:13;;;;;;;3.07;1.77;;;22.10;99.90;;;;;;4990098;28;20197;-80
2021/08/08 12:22:41;;;;;;;3.47;1.77;;;22.10;99.90;;;;;;4983318;28;20185;-79
2021/08/08 12:25:11;;;;;;;2.87;1.70;;;22.10;99.90;;;;;;4994297;28;20202;-78
2021/08/08 12:27:40;;;;;;;3.57;1.53;;;22.10;99.90;;;;;;4995784;28;20472;-79
2021/08/08 12:30:08;;;;;;;2.83;1.50;;;22.10;99.90;;;;;;4989733;28;20568;-77
2021/08/08 12:32:36;;;;;;;4.30;2.15;;;22.10;99.90;;;;;;4990525;28;20814;-79
2021/08/08 12:35:08;;;;;;;2.78;1.40;;;22.20;99.90;;;;;;4992176;28;20194;-78
2021/08/08 12:54:28;;;;;;;3.95;1.63;;;22.20;99.90;;;;;;4085289;28;20810;-79
2021/08/08 12:56:54;;;;;;;2.85;1.92;;;22.20;99.90;;;;;;4997544;28;20201;-79
2021/08/08 12:59:21;;;;;;;1.90;1.40;;;22.20;99.90;;;;;;4997604;28;20205;-79
2021/08/08 13:01:48;;;;;;;4.53;2.30;;;22.20;99.90;;;;;;4997703;28;20465;-79
2021/08/08 13:04:16;;;;;;;4.70;2.00;;;22.20;99.90;;;;;;4997903;28;20214;-79
2021/08/08 13:06:43;;;;;;;3.00;1.83;;;22.20;99.90;;;;;;4995715;28;20556;-78
2021/08/08 13:26:03;;;;;;;2.93;1.43;;;22.30;99.90;;;;;;5004266;28;20642;-78
2021/08/08 13:28:29;;;;;;;6.87;2.37;;;22.40;99.90;;;;;;4996484;28;20495;-79
2021/08/08 13:30:56;;;;;;;3.23;1.60;;;22.40;99.90;;;;;;4995530;28;20480;-79
2021/08/08 13:33:23;;;;;;;2.70;1.57;;;22.40;99.90;;;;;;5003440;28;20515;-78
2021/08/08 13:35:50;;;;;;;5.07;1.93;;;22.40;99.90;;;;;;4995554;28;20468;-78
2021/08/08 13:38:17;;;;;;;3.33;1.67;;;22.40;99.90;;;;;;4998302;28;20452;-78
2021/08/08 13:57:36;;;;;;;1.80;1.43;;;22.40;99.90;;;;;;4994653;28;20395;-78
2021/08/08 14:00:03;;;;;;;3.33;1.83;;;22.40;99.90;;;;;;4996453;28;20953;-78
2021/08/08 14:02:30;;;;;;;1.40;1.10;;;22.50;99.90;;;;;;4995497;28;20536;-78
2021/08/08 14:04:57;;;;;;;1.77;1.47;;;22.40;99.90;;;;;;4987789;28;20455;-79
2021/08/08 14:07:24;;;;;;;3.80;2.17;;;22.50;99.90;;;;;;4997024;28;20448;-79
2021/08/08 14:09:50;;;;;;;2.50;1.37;;;22.50;99.90;;;;;;4994479;28;20480;-78
2021/08/08 14:23:12;;;;;;;2.70;1.27;;;22.50;99.90;;;;;;4992708;28;20451;-79
2021/08/08 14:25:43;;;;;;;1.83;1.20;;;22.50;99.90;;;;;;4986395;28;20466;-78
2021/08/08 14:31:32;;;;;;;2.80;1.20;;;22.50;99.90;;;;;;4990705;28;20537;-79
2021/08/08 14:33:59;;;;;;;6.60;1.33;;;22.50;99.90;;;;;;4990861;28;20469;-79
2021/08/08 14:36:25;;;;;;;2.43;1.40;;;22.50;99.90;;;;;;4993449;28;20833;-80
2021/08/08 14:38:52;;;;;;;1.50;1.13;;;22.50;99.90;;;;;;4994166;28;20793;-79
2021/08/08 14:52:07;;;;;;;1.20;1.00;;;22.40;99.90;;;;;;4997798;28;20482;-78
2021/08/08 14:55:07;;;;;;;4.63;1.48;;;22.30;99.90;;;;;;3595848;28;23509;-76
2021/08/08 14:57:33;;;;;;;2.07;1.87;;;22.30;99.90;;;;;;4954550;28;20682;-78
2021/08/08 15:00:00;;;;;;;3.40;1.40;;;22.30;99.90;;;;;;4953147;28;20466;-79
2021/08/08 15:02:27;;;;;;;1.43;1.00;;;22.20;99.90;;;;;;4954923;28;20454;-79
2021/08/08 15:04:53;;;;;;;1.70;1.17;;;22.20;99.90;;;;;;4954402;28;20545;-79
2021/08/08 15:07:20;;;;;;;3.53;1.80;;;22.20;99.90;;;;;;4955017;28;20214;-79
2021/08/08 15:26:39;;;;;;;2.83;1.20;;;22.10;99.90;;;;;;4968203;28;20409;-78
2021/08/08 15:29:05;;;;;;;2.13;1.42;;;22.10;99.90;;;;;;4975528;28;20202;-77
2021/08/08 15:31:32;;;;;;;1.83;1.58;;;22.10;99.90;;;;;;4957529;28;20230;-76
2021/08/08 15:33:59;;;;;;;2.90;1.50;;;22.10;99.90;;;;;;4956166;28;20899;-77
2021/08/08 15:36:26;;;;;;;2.08;1.25;;;22.10;99.90;;;;;;4955286;28;20210;-77
2021/08/08 15:38:52;;;;;;;3.00;2.55;;;22.00;99.90;;;;;;4960953;28;20202;-77
2021/08/08 15:58:11;;;;;;;2.38;1.15;;;22.10;99.90;;;;;;4859649;28;20229;-77
2021/08/08 16:00:38;;;;;;;3.10;1.10;;;22.10;99.90;;;;;;4990572;28;20253;-77
2021/08/08 16:03:05;;;;;;;2.00;1.03;;;22.10;99.90;;;;;;4986061;28;20202;-78
2021/08/08 16:05:32;;;;;;;1.70;1.23;;;22.10;99.90;;;;;;4980289;28;20472;-79
2021/08/08 16:07:58;;;;;;;2.35;1.10;;;22.10;99.90;;;;;;4992291;28;20467;-78
2021/08/08 16:10:25;;;;;;;1.43;1.00;;;22.10;99.90;;;;;;4991045;28;20217;-78
2021/08/08 16:12:52;;;;;;;1.73;1.23;;;22.10;99.90;;;;;;4993958;28;20530;-79
2021/08/08 16:26:18;;;;;;;2.17;1.30;;;22.10;99.90;;;;;;4989274;28;20212;-78
2021/08/08 16:29:06;;;;;;;1.57;1.07;;;22.10;99.90;;;;;;4992092;28;20197;-78
2021/08/08 16:31:33;;;;;;;1.23;1.10;;;22.10;99.90;;;;;;4994746;28;20905;-78
2021/08/08 16:33:59;;;;;;;1.30;1.20;;;22.10;99.90;;;;;;4995509;28;20209;-78
2021/08/08 16:36:26;;;;;;;2.13;1.20;;;22.10;99.90;;;;;;4987533;28;20194;-78
2021/08/08 16:38:53;;;;;;;1.57;0.80;;;22.10;99.90;;;;;;4984186;28;20213;-78
2021/08/08 16:41:20;;;;;;;1.52;1.10;;;22.10;99.90;;;;;;4992372;28;20465;-78
2021/08/08 16:43:47;;;;;;;2.33;2.13;;;22.10;99.90;;;;;;4995448;28;20260;-80
2021/08/08 16:46:15;;;;;;;1.33;1.00;;;22.10;99.90;;;;;;4993932;28;20460;-78
2021/08/08 17:02:48;;;;;;;1.30;1.20;;;22.00;99.90;;;;;;3295065;28;22208;-78
2021/08/08 17:05:16;;;;;;;1.30;1.13;;;21.90;99.90;;;;;;4991826;28;20189;-78
2021/08/08 17:07:43;;;;;;;1.70;1.17;;;21.90;99.90;;;;;;4994643;28;20217;-79
2021/08/08 17:10:10;;;;;;;2.03;1.40;;;21.90;99.90;;;;;;4990415;28;20639;-79
2021/08/08 17:12:37;;;;;;;1.50;1.20;;;21.90;99.90;;;;;;4992474;28;20232;-78
2021/08/08 17:15:05;;;;;;;1.67;1.27;;;21.90;99.90;;;;;;4990549;28;20465;-78
2021/08/08 17:17:32;;;;;;;1.73;1.30;;;21.90;99.90;;;;;;4990681;28;20464;-78
2021/08/08 17:19:59;;;;;;;2.20;1.40;;;21.90;99.90;;;;;;4986470;28;20459;-77
2021/08/08 17:39:18;;;;;;;1.60;1.23;;;21.70;99.90;;;;;;4985886;28;20504;-78
2021/08/08 17:41:45;;;;;;;2.33;1.23;;;21.70;99.90;;;;;;4993239;28;20456;-78
2021/08/08 17:44:11;;;;;;;3.15;1.50;;;21.70;99.90;;;;;;4993528;28;20200;-78
2021/08/08 17:46:38;;;;;;;2.33;1.20;;;21.70;99.90;;;;;;4992844;28;20193;-80
2021/08/08 17:49:05;;;;;;;3.25;1.83;;;21.70;99.90;;;;;;4992616;28;20208;-77
2021/08/08 17:51:31;;;;;;;2.40;1.70;;;21.70;99.90;;;;;;4993172;28;20221;-78
2021/08/08 17:53:58;;;;;;;1.83;1.40;;;21.70;99.90;;;;;;4993057;28;20193;-78
2021/08/08 18:13:17;;;;;;;1.30;1.00;;;21.60;99.90;;;;;;4988743;28;20597;-82
2021/08/08 18:15:44;;;;;;;2.15;1.13;;;21.60;99.90;;;;;;4993564;28;20197;-78
2021/08/08 18:18:11;;;;;;;1.38;1.27;;;21.50;99.90;;;;;;4993694;28;20201;-79
2021/08/08 18:20:37;;;;;;;3.13;1.95;;;21.50;99.90;;;;;;4991482;28;20198;-78
2021/08/08 18:23:04;;;;;;;1.90;1.17;;;21.50;99.90;;;;;;4991424;28;20193;-78
2021/08/08 18:25:31;;;;;;;2.15;1.55;;;21.20;99.90;;;;;;4991910;28;20662;-78
2021/08/08 18:27:58;;;;;;;5.88;1.50;;;21.30;99.90;;;;;;4989436;28;20542;-78
2021/08/08 18:47:16;;;;;;;2.78;1.90;;;21.30;99.90;;;;;;4991453;28;20212;-78
2021/08/08 18:49:43;;;;;;;5.40;1.60;;;21.30;99.90;;;;;;4992463;28;20201;-78
2021/08/08 18:52:10;;;;;;;1.27;1.00;;;21.30;99.90;;;;;;4991380;28;20252;-77
2021/08/08 18:54:37;;;;;;;3.05;1.48;;;21.30;99.90;;;;;;4991515;28;20238;-78
2021/08/08 18:57:03;;;;;;;4.53;1.40;;;21.30;99.90;;;;;;4991615;28;20206;-78
2021/08/08 18:59:30;;;;;;;2.15;1.75;;;21.20;99.90;;;;;;4991749;28;20209;-78
2021/08/08 19:01:57;;;;;;;2.05;1.40;;;21.20;99.90;;;;;;4990611;28;20201;-78
2021/08/08 19:18:30;;;;;;;2.50;1.30;;;21.10;99.90;;;;;;4827870;28;20312;-77
2021/08/08 19:20:58;;;;;;;1.98;1.65;;;21.10;99.90;;;;;;4989375;28;20205;-77
2021/08/08 19:23:25;;;;;;;2.05;1.65;;;21.10;99.90;;;;;;4988706;28;20212;-77
2021/08/08 19:25:52;;;;;;;4.35;1.70;;;21.10;99.90;;;;;;4989817;28;20208;-78
2021/08/08 19:28:21;;;;;;;1.60;1.23;;;21.00;99.90;;;;;;4989016;28;20206;-79
2021/08/08 19:30:47;;;;;;;1.80;1.20;;;21.00;99.90;;;;;;4991225;28;20201;-78
2021/08/08 19:33:14;;;;;;;1.63;1.27;;;21.00;99.90;;;;;;4992228;28;20201;-78
2021/08/08 19:35:41;;;;;;;1.73;1.10;;;21.00;99.90;;;;;;4992217;28;20208;-78
2021/08/08 19:55:00;;;;;;;2.35;1.38;;;20.80;99.90;;;;;;4989519;28;20188;-78
2021/08/08 19:57:27;;;;;;;3.35;1.50;;;20.90;99.90;;;;;;4989684;28;20216;-78
2021/08/08 19:59:53;;;;;;;2.97;1.75;;;20.80;99.90;;;;;;4991572;28;20206;-81
2021/08/08 20:02:21;;;;;;;1.90;1.13;;;20.80;99.90;;;;;;4995692;28;20213;-79
2021/08/08 20:04:48;;;;;;;8.50;2.88;;;20.80;99.90;;;;;;4997643;28;20316;-78
2021/08/08 20:07:14;;;;;;;1.65;1.20;;;20.80;99.90;;;;;;4999531;28;20216;-79
2021/08/08 20:09:41;;;;;;;3.78;1.52;;;20.80;99.90;;;;;;4998732;28;20205;-78
2021/08/08 20:29:00;;;;;;;1.50;1.30;;;20.70;99.90;;;;;;4997435;28;20184;-79
2021/08/08 20:31:28;;;;;;;1.80;1.40;;;20.70;99.90;;;;;;4996276;28;20225;-80
2021/08/08 20:33:55;;;;;;;1.75;1.58;;;20.60;99.90;;;;;;4995521;28;20201;-79
2021/08/08 20:36:22;;;;;;;1.67;1.50;;;20.60;99.90;;;;;;4997367;28;20201;-79
2021/08/08 20:38:48;;;;;;;1.77;1.30;;;20.60;99.90;;;;;;4996215;28;20622;-79
2021/08/08 20:41:16;;;;;;;1.70;1.20;;;20.60;99.90;;;;;;4997440;28;20586;-80
2021/08/08 20:43:43;;;;;;;1.30;1.20;;;20.60;99.90;;;;;;4996303;28;20225;-79
2021/08/08 21:03:07;;;;;;;2.30;1.23;;;20.40;99.90;;;;;;4992339;28;20668;-77
2021/08/08 21:05:34;;;;;;;2.65;1.48;;;20.40;99.90;;;;;;4991354;28;20543;-76
2021/08/08 21:08:01;;;;;;;1.42;1.20;;;20.40;99.90;;;;;;4992066;28;20220;-81
2021/08/08 21:10:28;;;;;;;2.22;1.42;;;20.30;99.90;;;;;;4993981;28;20208;-80
2021/08/08 21:12:54;;;;;;;2.70;1.90;;;20.30;99.90;;;;;;4993226;28;20551;-78
2021/08/08 21:15:21;;;;;;;1.70;1.30;;;20.30;99.90;;;;;;4992322;28;20193;-78
2021/08/08 21:17:48;;;;;;;1.40;1.10;;;20.30;99.90;;;;;;4991640;28;20206;-81
2021/08/08 21:20:18;;;;;;;2.05;1.35;;;20.30;99.90;;;;;;4993958;28;20208;-80
2021/08/08 21:36:33;;;;;;;2.97;1.40;;;20.20;99.90;;;;;;4952365;29;20305;-79
2021/08/08 21:39:03;;;;;;;2.88;1.58;;;20.20;99.90;;;;;;4960222;28;20214;-78
2021/08/08 21:41:30;;;;;;;5.10;1.58;;;20.20;99.90;;;;;;4956772;29;20199;-80
2021/08/08 21:43:56;;;;;;;1.75;1.33;;;20.10;99.90;;;;;;4957143;29;20205;-82
2021/08/08 21:46:23;;;;;;;2.20;1.45;;;20.10;99.90;;;;;;4957030;29;20218;-80
2021/08/08 21:48:50;;;;;;;1.90;1.40;;;20.10;99.90;;;;;;4957988;29;20199;-80
2021/08/08 21:51:17;;;;;;;2.00;1.30;;;20.10;99.90;;;;;;4956520;29;20203;-81
2021/08/08 21:53:45;;;;;;;1.30;1.20;;;20.10;99.90;;;;;;4956036;29;20203;-82
2021/08/08 21:56:12;;;;;;;1.83;1.13;;;20.10;99.90;;;;;;4955701;28;20207;-81
